createdAt,value
2018-05-29T00:00:29.681Z,94.50
2018-05-29T00:01:29.698Z,94.40
2018-05-29T00:02:29.713Z,94.93
2018-05-29T00:03:29.782Z,94.74
2018-05-29T00:04:29.748Z,94.60
2018-05-29T00:05:29.840Z,95.17
2018-05-29T00:06:29.780Z,95.12
2018-05-29T00:07:29.796Z,95.03
2018-05-29T00:08:29.822Z,94.93
2018-05-29T00:09:29.877Z,95.51
2018-05-29T00:10:29.843Z,95.98
2018-05-29T00:11:29.897Z,95.89
2018-05-29T00:12:29.879Z,96.22
2018-05-29T00:13:29.898Z,95.41
2018-05-29T00:14:29.911Z,95.07
2018-05-29T00:15:29.985Z,95.79
2018-05-29T00:16:29.952Z,96.51
2018-05-29T00:17:29.978Z,96.42
2018-05-29T00:18:29.983Z,96.99
2018-05-29T00:19:29.999Z,97.38
2018-05-29T00:20:30.015Z,97.09
2018-05-29T00:21:30.081Z,97.38
2018-05-29T00:22:30.049Z,98.00
2018-05-29T00:23:30.069Z,97.13
2018-05-29T00:24:30.082Z,98.47
2018-05-29T00:25:30.104Z,99.24
2018-05-29T00:26:30.116Z,99.15
2018-05-29T00:27:30.131Z,98.95
2018-05-29T00:28:30.152Z,98.90
2018-05-29T00:29:30.164Z,99.91
2018-05-29T00:30:30.181Z,99.62
2018-05-29T00:31:30.201Z,99.99
2018-05-29T00:32:30.221Z,99.99
2018-05-29T00:33:30.289Z,99.99
2018-05-29T00:34:30.249Z,99.99
2018-05-29T00:35:30.267Z,99.99
2018-05-29T00:36:30.288Z,99.99
2018-05-29T00:37:30.307Z,99.99
2018-05-29T00:38:30.314Z,99.99
2018-05-29T00:39:30.384Z,99.99
2018-05-29T00:40:30.350Z,99.99
2018-05-29T00:41:30.366Z,99.99
2018-05-29T00:42:30.386Z,99.99
2018-05-29T00:43:30.409Z,99.99
2018-05-29T00:44:30.417Z,99.99
2018-05-29T00:45:30.490Z,99.62
2018-05-29T00:46:30.455Z,99.72
2018-05-29T00:47:30.467Z,99.24
2018-05-29T00:48:30.484Z,99.24
2018-05-29T00:49:30.502Z,99.10
2018-05-29T00:50:30.523Z,98.66
2018-05-29T00:51:30.588Z,99.05
2018-05-29T00:52:30.553Z,98.66
2018-05-29T00:53:30.597Z,98.61
2018-05-29T00:54:30.586Z,98.95
2018-05-29T00:55:30.598Z,98.95
2018-05-29T00:56:30.621Z,98.47
2018-05-29T00:57:30.684Z,98.86
2018-05-29T00:58:30.650Z,98.76
2018-05-29T00:59:30.699Z,97.47
2018-05-29T01:00:30.688Z,98.19
2018-05-29T01:01:30.707Z,98.47
2018-05-29T01:02:30.726Z,98.28
2018-05-29T01:03:30.788Z,98.19
2018-05-29T01:04:30.750Z,98.47
2018-05-29T01:05:30.769Z,97.71
2018-05-29T01:06:30.782Z,97.61
2018-05-29T01:07:30.798Z,98.00
2018-05-29T01:08:30.820Z,97.61
2018-05-29T01:09:30.884Z,97.80
2018-05-29T01:10:30.852Z,97.52
2018-05-29T01:11:30.872Z,97.80
2018-05-29T01:12:30.886Z,96.94
2018-05-29T01:13:30.904Z,97.33
2018-05-29T01:14:30.932Z,96.84
2018-05-29T01:15:30.988Z,96.56
2018-05-29T01:16:30.954Z,96.18
2018-05-29T01:17:30.969Z,96.18
2018-05-29T01:18:30.984Z,96.37
2018-05-29T01:19:31.005Z,96.27
2018-05-29T01:20:31.021Z,96.47
2018-05-29T01:21:31.090Z,96.75
2018-05-29T01:22:31.056Z,96.18
2018-05-29T01:23:31.071Z,96.27
2018-05-29T01:24:31.156Z,96.08
2018-05-29T01:25:31.123Z,96.37
2018-05-29T01:26:31.124Z,96.27
2018-05-29T01:27:31.187Z,96.08
2018-05-29T01:28:31.151Z,96.08
2018-05-29T01:29:31.174Z,95.79
2018-05-29T01:30:31.244Z,95.70
2018-05-29T01:31:31.207Z,96.18
2018-05-29T01:32:31.222Z,96.56
2018-05-29T01:33:31.290Z,95.89
2018-05-29T01:34:31.252Z,95.89
2018-05-29T01:35:31.273Z,95.89
2018-05-29T01:36:31.374Z,95.98
2018-05-29T01:37:31.304Z,95.22
2018-05-29T01:38:31.322Z,96.08
2018-05-29T01:39:31.384Z,95.98
2018-05-29T01:40:31.355Z,96.08
2018-05-29T01:41:31.374Z,95.89
2018-05-29T01:42:31.425Z,96.08
2018-05-29T01:43:31.407Z,95.51
2018-05-29T01:44:31.418Z,96.18
2018-05-29T01:45:31.495Z,96.37
2018-05-29T01:46:31.454Z,95.89
2018-05-29T01:47:31.471Z,95.70
2018-05-29T01:48:31.485Z,95.41
2018-05-29T01:49:31.514Z,96.08
2018-05-29T01:50:31.523Z,95.70
2018-05-29T01:51:31.585Z,95.51
2018-05-29T01:52:31.555Z,96.08
2018-05-29T01:53:31.573Z,95.70
2018-05-29T01:54:31.592Z,96.08
2018-05-29T01:55:31.608Z,95.89
2018-05-29T01:56:31.624Z,95.89
2018-05-29T01:57:31.691Z,95.61
2018-05-29T01:58:31.664Z,96.08
2018-05-29T01:59:31.673Z,95.70
2018-05-29T02:00:31.691Z,95.89
2018-05-29T02:01:31.702Z,95.12
2018-05-29T02:02:31.724Z,95.12
2018-05-29T02:03:31.789Z,95.12
2018-05-29T02:04:31.774Z,95.03
2018-05-29T02:05:31.770Z,95.31
2018-05-29T02:06:31.789Z,95.03
2018-05-29T02:07:31.823Z,95.03
2018-05-29T02:08:31.829Z,94.45
2018-05-29T02:09:31.891Z,95.89
2018-05-29T02:10:31.860Z,94.84
2018-05-29T02:11:31.872Z,95.79
2018-05-29T02:12:31.887Z,94.84
2018-05-29T02:13:31.970Z,94.84
2018-05-29T02:14:31.970Z,95.22
2018-05-29T02:15:31.995Z,94.84
2018-05-29T02:16:31.965Z,95.12
2018-05-29T02:17:32.024Z,94.74
2018-05-29T02:18:32.025Z,94.89
2018-05-29T02:19:32.025Z,95.61
2018-05-29T02:20:32.023Z,95.65
2018-05-29T02:21:32.089Z,96.32
2018-05-29T02:22:32.061Z,96.18
2018-05-29T02:23:32.075Z,96.13
2018-05-29T02:24:32.095Z,96.37
2018-05-29T02:25:32.112Z,95.89
2018-05-29T02:26:32.124Z,96.37
2018-05-29T02:27:32.198Z,95.89
2018-05-29T02:28:32.158Z,95.89
2018-05-29T02:29:32.181Z,95.41
2018-05-29T02:30:32.199Z,95.70
2018-05-29T02:31:32.215Z,95.79
2018-05-29T02:32:32.224Z,95.12
2018-05-29T02:33:32.295Z,94.84
2018-05-29T02:34:32.262Z,95.31
2018-05-29T02:35:32.276Z,94.84
2018-05-29T02:36:32.299Z,95.61
2018-05-29T02:37:32.308Z,95.70
2018-05-29T02:38:32.327Z,96.47
2018-05-29T02:39:32.399Z,96.13
2018-05-29T02:40:32.356Z,96.22
2018-05-29T02:41:32.378Z,96.32
2018-05-29T02:42:32.394Z,96.80
2018-05-29T02:43:32.410Z,97.08
2018-05-29T02:44:32.500Z,96.89
2018-05-29T02:45:32.493Z,97.56
2018-05-29T02:46:32.464Z,97.37
2018-05-29T02:47:32.480Z,97.75
2018-05-29T02:48:32.502Z,97.37
2018-05-29T02:49:32.516Z,97.37
2018-05-29T02:50:32.555Z,97.37
2018-05-29T02:51:32.599Z,97.47
2018-05-29T02:52:32.559Z,97.56
2018-05-29T02:53:32.577Z,97.56
2018-05-29T02:54:32.590Z,97.56
2018-05-29T02:55:32.627Z,97.37
2018-05-29T02:56:32.626Z,97.28
2018-05-29T02:57:32.701Z,97.85
2018-05-29T02:58:32.665Z,97.75
2018-05-29T02:59:32.680Z,97.56
2018-05-29T03:00:32.690Z,97.56
2018-05-29T03:01:32.712Z,97.56
2018-05-29T03:02:32.748Z,97.56
2018-05-29T03:04:32.909Z,97.56
2018-05-29T03:05:32.773Z,98.71
2018-05-29T03:06:32.796Z,98.90
2018-05-29T03:07:32.811Z,99.86
2018-05-29T03:08:32.830Z,99.99
2018-05-29T03:09:32.840Z,99.99
2018-05-29T03:10:32.914Z,99.99
2018-05-29T03:11:32.876Z,99.99
2018-05-29T03:12:32.896Z,99.99
2018-05-29T03:13:32.905Z,99.99
2018-05-29T03:14:32.920Z,99.99
2018-05-29T03:15:32.940Z,99.99
2018-05-29T03:16:33.011Z,99.99
2018-05-29T03:17:32.981Z,99.99
2018-05-29T03:18:32.989Z,99.99
2018-05-29T03:19:33.011Z,99.99
2018-05-29T03:20:33.028Z,99.99
2018-05-29T03:21:33.045Z,99.99
2018-05-29T03:22:33.105Z,99.99
2018-05-29T03:23:33.072Z,99.99
2018-05-29T03:24:33.089Z,99.99
2018-05-29T03:25:33.105Z,99.99
2018-05-29T03:26:33.160Z,99.99
2018-05-29T03:27:33.138Z,99.99
2018-05-29T03:28:33.209Z,99.99
2018-05-29T03:29:33.174Z,99.99
2018-05-29T03:30:33.190Z,99.99
2018-05-29T03:31:33.204Z,99.99
2018-05-29T03:32:33.229Z,99.99
2018-05-29T03:33:33.241Z,99.99
2018-05-29T03:34:33.301Z,99.99
2018-05-29T03:35:33.275Z,99.99
2018-05-29T03:36:33.286Z,99.99
2018-05-29T03:37:33.308Z,99.99
2018-05-29T03:38:33.320Z,99.99
2018-05-29T03:39:33.340Z,99.99
2018-05-29T03:40:33.410Z,99.99
2018-05-29T03:41:33.372Z,99.99
2018-05-29T03:42:33.386Z,99.99
2018-05-29T03:43:33.403Z,99.99
2018-05-29T03:44:33.418Z,99.99
2018-05-29T03:45:33.443Z,99.99
2018-05-29T03:46:33.570Z,99.99
2018-05-29T03:47:33.472Z,99.99
2018-05-29T03:48:33.488Z,99.99
2018-05-29T03:49:33.505Z,99.99
2018-05-29T03:50:33.524Z,99.99
2018-05-29T03:51:33.542Z,99.99
2018-05-29T03:52:33.607Z,99.99
2018-05-29T03:53:33.568Z,99.99
2018-05-29T03:54:33.592Z,99.99
2018-05-29T03:55:33.605Z,99.99
2018-05-29T03:56:33.616Z,99.99
2018-05-29T03:57:33.645Z,99.99
2018-05-29T03:58:33.699Z,99.99
2018-05-29T03:59:33.666Z,99.99
2018-05-29T04:00:33.690Z,99.99
2018-05-29T04:01:33.705Z,99.99
2018-05-29T04:02:33.718Z,99.99
2018-05-29T04:03:33.754Z,99.99
2018-05-29T04:04:33.802Z,99.99
2018-05-29T04:05:33.768Z,99.99
2018-05-29T04:06:33.790Z,99.99
2018-05-29T04:07:33.797Z,99.99
2018-05-29T04:08:33.818Z,99.99
2018-05-29T04:09:33.838Z,99.99
2018-05-29T04:10:33.906Z,99.99
2018-05-29T04:11:33.869Z,99.99
2018-05-29T04:12:33.879Z,99.99
2018-05-29T04:13:33.899Z,99.99
2018-05-29T04:14:33.915Z,99.76
2018-05-29T04:15:33.942Z,99.99
2018-05-29T04:16:34.043Z,99.86
2018-05-29T04:17:33.965Z,99.76
2018-05-29T04:18:33.978Z,98.81
2018-05-29T04:19:34.002Z,98.81
2018-05-29T04:20:34.018Z,99.38
2018-05-29T04:21:34.041Z,99.86
2018-05-29T04:22:34.162Z,99.86
2018-05-29T04:23:34.067Z,99.76
2018-05-29T04:24:34.083Z,99.48
2018-05-29T04:25:34.102Z,99.86
2018-05-29T04:26:34.114Z,99.48
2018-05-29T04:27:34.132Z,99.48
2018-05-29T04:28:34.216Z,99.57
2018-05-29T04:29:34.170Z,99.57
2018-05-29T04:30:34.187Z,99.10
2018-05-29T04:31:34.196Z,98.90
2018-05-29T04:32:34.214Z,98.61
2018-05-29T04:33:34.230Z,98.90
2018-05-29T04:34:34.300Z,99.00
2018-05-29T04:35:34.267Z,98.43
2018-05-29T04:36:34.285Z,98.71
2018-05-29T04:37:34.303Z,99.00
2018-05-29T04:38:34.315Z,99.00
2018-05-29T04:39:34.332Z,99.10
2018-05-29T04:40:34.401Z,98.71
2018-05-29T04:41:34.363Z,98.52
2018-05-29T04:42:34.379Z,98.81
2018-05-29T04:43:34.404Z,98.81
2018-05-29T04:44:34.417Z,98.71
2018-05-29T04:45:34.437Z,98.71
2018-05-29T04:46:34.504Z,98.33
2018-05-29T04:47:34.463Z,97.28
2018-05-29T04:48:34.485Z,97.56
2018-05-29T04:49:34.498Z,97.75
2018-05-29T04:50:34.516Z,97.66
2018-05-29T04:51:34.536Z,97.47
2018-05-29T04:52:34.598Z,97.56
2018-05-29T04:53:34.648Z,97.56
2018-05-29T04:54:34.583Z,97.56
2018-05-29T04:55:34.596Z,97.28
2018-05-29T04:56:34.623Z,97.75
2018-05-29T04:57:34.629Z,97.47
2018-05-29T04:58:34.705Z,97.56
2018-05-29T04:59:34.716Z,97.56
2018-05-29T05:00:34.685Z,97.75
2018-05-29T05:01:34.696Z,97.47
2018-05-29T05:02:34.724Z,97.47
2018-05-29T05:03:34.782Z,97.37
2018-05-29T05:04:34.772Z,97.28
2018-05-29T05:05:34.777Z,97.47
2018-05-29T05:06:34.782Z,97.28
2018-05-29T05:07:34.796Z,97.56
2018-05-29T05:08:34.812Z,97.28
2018-05-29T05:09:34.885Z,97.56
2018-05-29T05:10:34.849Z,98.61
2018-05-29T05:11:34.886Z,98.52
2018-05-29T05:12:34.881Z,98.52
2018-05-29T05:13:34.905Z,98.81
2018-05-29T05:14:34.911Z,98.81
2018-05-29T05:15:34.983Z,98.52
2018-05-29T05:16:34.952Z,98.52
2018-05-29T05:17:34.986Z,99.10
2018-05-29T05:18:34.976Z,98.90
2018-05-29T05:19:34.992Z,99.00
2018-05-29T05:20:35.015Z,98.81
2018-05-29T05:21:35.082Z,99.57
2018-05-29T05:22:35.048Z,99.57
2018-05-29T05:23:35.145Z,99.99
2018-05-29T05:24:35.080Z,99.76
2018-05-29T05:25:35.100Z,99.99
2018-05-29T05:26:35.111Z,99.86
2018-05-29T05:27:35.186Z,99.29
2018-05-29T05:28:35.154Z,99.67
2018-05-29T05:29:35.187Z,99.99
2018-05-29T05:30:35.176Z,99.99
2018-05-29T05:31:35.195Z,99.99
2018-05-29T05:32:35.210Z,99.76
2018-05-29T05:33:35.284Z,99.86
2018-05-29T05:34:35.246Z,99.76
2018-05-29T05:35:35.265Z,99.38
2018-05-29T05:36:35.277Z,99.57
2018-05-29T05:37:35.294Z,99.29
2018-05-29T05:38:35.309Z,99.67
2018-05-29T05:39:35.380Z,99.76
2018-05-29T05:40:35.346Z,99.72
2018-05-29T05:41:35.399Z,99.99
2018-05-29T05:42:35.375Z,99.99
2018-05-29T05:43:35.399Z,99.72
2018-05-29T05:44:35.407Z,99.91
2018-05-29T05:45:35.430Z,99.33
2018-05-29T05:46:35.454Z,98.61
2018-05-29T05:47:35.503Z,98.66
2018-05-29T05:48:35.480Z,98.95
2018-05-29T05:49:35.495Z,98.86
2018-05-29T05:50:35.512Z,99.00
2018-05-29T05:51:35.578Z,98.90
2018-05-29T05:52:35.545Z,98.76
2018-05-29T05:53:35.556Z,98.71
2018-05-29T05:54:35.577Z,99.05
2018-05-29T05:55:35.594Z,99.05
2018-05-29T05:56:35.609Z,98.95
2018-05-29T05:57:35.680Z,98.86
2018-05-29T05:58:35.668Z,98.28
2018-05-29T05:59:35.657Z,98.00
2018-05-29T06:00:35.679Z,98.19
2018-05-29T06:01:35.692Z,98.28
2018-05-29T06:02:35.708Z,98.33
2018-05-29T06:03:35.782Z,98.38
2018-05-29T06:04:35.742Z,99.00
2018-05-29T06:05:35.755Z,98.86
2018-05-29T06:06:35.778Z,98.76
2018-05-29T06:07:35.799Z,98.76
2018-05-29T06:08:35.807Z,98.19
2018-05-29T06:09:35.880Z,98.47
2018-05-29T06:10:35.837Z,98.47
2018-05-29T06:11:35.855Z,97.52
2018-05-29T06:12:35.936Z,97.52
2018-05-29T06:13:35.892Z,97.52
2018-05-29T06:14:35.902Z,97.13
2018-05-29T06:15:35.975Z,97.13
2018-05-29T06:16:35.943Z,97.13
2018-05-29T06:17:35.953Z,96.37
2018-05-29T06:18:35.971Z,95.98
2018-05-29T06:19:35.986Z,95.98
2018-05-29T06:20:36.013Z,96.56
2018-05-29T06:21:36.077Z,96.27
2018-05-29T06:22:36.035Z,96.18
2018-05-29T06:23:36.053Z,95.89
2018-05-29T06:24:36.146Z,96.18
2018-05-29T06:25:36.096Z,96.18
2018-05-29T06:26:36.105Z,96.56
2018-05-29T06:27:36.173Z,96.27
2018-05-29T06:28:36.153Z,96.37
2018-05-29T06:29:36.156Z,95.89
2018-05-29T06:30:36.190Z,96.37
2018-05-29T06:31:36.190Z,95.70
2018-05-29T06:32:36.209Z,95.89
2018-05-29T06:33:36.273Z,95.79
2018-05-29T06:34:36.240Z,95.89
2018-05-29T06:35:36.262Z,96.37
2018-05-29T06:36:36.295Z,96.18
2018-05-29T06:37:36.285Z,96.18
2018-05-29T06:38:36.312Z,96.37
2018-05-29T06:39:36.374Z,96.37
2018-05-29T06:40:36.339Z,95.98
2018-05-29T06:41:36.359Z,96.27
2018-05-29T06:42:36.380Z,95.89
2018-05-29T06:43:36.390Z,95.70
2018-05-29T06:44:36.406Z,95.79
2018-05-29T06:45:36.470Z,95.79
2018-05-29T06:46:36.442Z,95.51
2018-05-29T06:47:36.453Z,95.98
2018-05-29T06:48:36.492Z,95.84
2018-05-29T06:49:36.491Z,94.65
2018-05-29T06:50:36.501Z,94.98
2018-05-29T06:51:36.572Z,94.98
2018-05-29T06:52:36.554Z,94.69
2018-05-29T06:53:36.556Z,95.17
2018-05-29T06:54:36.576Z,94.69
2018-05-29T06:55:36.592Z,95.07
2018-05-29T06:56:36.603Z,94.89
2018-05-29T06:57:36.676Z,94.89
2018-05-29T06:58:36.638Z,94.79
2018-05-29T06:59:36.651Z,94.40
2018-05-29T07:00:36.696Z,94.69
2018-05-29T07:01:36.699Z,94.98
2018-05-29T07:02:36.707Z,94.79
2018-05-29T07:03:36.777Z,94.40
2018-05-29T07:05:36.764Z,94.12
2018-05-29T07:06:36.772Z,93.64
2018-05-29T07:07:36.791Z,93.54
2018-05-29T07:08:36.810Z,93.45
2018-05-29T07:09:36.874Z,93.64
2018-05-29T07:10:36.838Z,93.49
2018-05-29T07:11:36.859Z,93.02
2018-05-29T07:12:36.879Z,92.63
2018-05-29T07:13:36.888Z,93.26
2018-05-29T07:14:36.929Z,92.30
2018-05-29T07:15:36.976Z,92.82
2018-05-29T07:16:36.942Z,92.35
2018-05-29T07:17:36.954Z,92.06
2018-05-29T07:18:36.972Z,91.86
2018-05-29T07:19:37.013Z,91.96
2018-05-29T07:20:37.017Z,91.77
2018-05-29T07:21:37.023Z,91.19
2018-05-29T07:22:37.046Z,91.49
2018-05-29T07:23:37.058Z,91.86
2018-05-29T07:24:37.130Z,90.91
2018-05-29T07:25:37.092Z,90.95
2018-05-29T07:26:37.107Z,90.91
2018-05-29T07:27:37.183Z,91.77
2018-05-29T07:28:37.153Z,91.82
2018-05-29T07:29:37.161Z,90.47
2018-05-29T07:30:37.174Z,89.61
2018-05-29T07:31:37.197Z,89.42
2018-05-29T07:32:37.211Z,88.65
2018-05-29T07:33:37.284Z,87.37
2018-05-29T07:34:37.246Z,87.17
2018-05-29T07:35:37.266Z,87.55
2018-05-29T07:36:37.279Z,88.17
2018-05-29T07:37:37.298Z,87.79
2018-05-29T07:38:37.316Z,87.79
2018-05-29T07:39:37.394Z,87.88
2018-05-29T07:40:37.347Z,87.88
2018-05-29T07:41:37.361Z,87.70
2018-05-29T07:42:37.383Z,87.74
2018-05-29T07:43:37.404Z,87.55
2018-05-29T07:44:37.419Z,87.98
2018-05-29T07:45:37.485Z,87.21
2018-05-29T07:46:37.448Z,87.50
2018-05-29T07:47:37.473Z,87.21
2018-05-29T07:48:37.491Z,87.50
2018-05-29T07:49:37.523Z,87.79
2018-05-29T07:50:37.520Z,87.79
2018-05-29T07:51:37.586Z,87.60
2018-05-29T07:52:37.551Z,87.12
2018-05-29T07:53:37.567Z,86.16
2018-05-29T07:54:37.584Z,86.30
2018-05-29T07:55:37.615Z,85.25
2018-05-29T07:56:37.623Z,84.58
2018-05-29T07:57:37.692Z,84.67
2018-05-29T07:58:37.656Z,85.44
2018-05-29T07:59:37.679Z,84.67
2018-05-29T08:00:37.696Z,84.77
2018-05-29T08:01:37.712Z,84.14
2018-05-29T08:02:37.727Z,84.33
2018-05-29T08:03:37.795Z,82.93
2018-05-29T08:04:37.765Z,81.59
2018-05-29T08:05:37.780Z,81.10
2018-05-29T08:06:37.793Z,80.76
2018-05-29T08:07:37.813Z,81.05
2018-05-29T08:08:37.829Z,80.38
2018-05-29T08:09:37.898Z,79.52
2018-05-29T08:10:37.884Z,80.28
2018-05-29T08:11:37.888Z,79.71
2018-05-29T08:12:37.906Z,78.69
2018-05-29T08:13:37.918Z,78.45
2018-05-29T08:14:37.937Z,79.22
2018-05-29T08:15:38.005Z,80.43
2018-05-29T08:16:37.975Z,82.26
2018-05-29T08:17:37.998Z,82.54
2018-05-29T08:18:38.013Z,82.16
2018-05-29T08:19:38.028Z,82.26
2018-05-29T08:20:38.044Z,82.64
2018-05-29T08:21:38.119Z,82.45
2018-05-29T08:22:38.086Z,82.74
2018-05-29T08:23:38.097Z,83.18
2018-05-29T08:24:38.166Z,83.18
2018-05-29T08:25:38.142Z,84.33
2018-05-29T08:26:38.239Z,83.75
2018-05-29T08:27:38.227Z,83.65
2018-05-29T08:28:38.198Z,83.08
2018-05-29T08:29:38.218Z,83.37
2018-05-29T08:30:38.224Z,82.89
2018-05-29T08:31:38.247Z,82.07
2018-05-29T08:32:38.296Z,82.60
2018-05-29T08:33:38.333Z,82.41
2018-05-29T08:34:38.294Z,81.84
2018-05-29T08:35:38.312Z,82.31
2018-05-29T08:36:38.341Z,81.74
2018-05-29T08:37:38.349Z,81.64
2018-05-29T08:38:38.370Z,81.30
2018-05-29T08:39:38.463Z,81.78
2018-05-29T08:40:38.409Z,81.49
2018-05-29T08:41:38.424Z,81.49
2018-05-29T08:42:38.440Z,80.91
2018-05-29T08:43:38.455Z,81.01
2018-05-29T08:44:38.496Z,80.53
2018-05-29T08:45:38.548Z,80.05
2018-05-29T08:46:38.515Z,80.57
2018-05-29T08:47:38.533Z,79.42
2018-05-29T08:48:38.551Z,79.99
2018-05-29T08:49:38.572Z,78.84
2018-05-29T08:50:38.589Z,78.36
2018-05-29T08:51:38.655Z,79.52
2018-05-29T08:52:38.673Z,79.32
2018-05-29T08:53:38.643Z,79.32
2018-05-29T08:54:38.662Z,79.84
2018-05-29T08:55:38.680Z,77.86
2018-05-29T08:56:38.756Z,76.84
2018-05-29T08:57:38.766Z,75.69
2018-05-29T08:58:38.734Z,74.82
2018-05-29T08:59:38.746Z,74.82
2018-05-29T09:00:38.769Z,74.82
2018-05-29T09:01:38.790Z,75.21
2018-05-29T09:02:38.805Z,74.98
2018-05-29T09:03:38.878Z,74.82
2018-05-29T09:04:38.849Z,75.02
2018-05-29T09:05:38.863Z,73.99
2018-05-29T09:06:38.887Z,74.38
2018-05-29T09:07:38.898Z,73.22
2018-05-29T09:08:38.969Z,74.05
2018-05-29T09:09:38.986Z,74.05
2018-05-29T09:10:38.951Z,73.67
2018-05-29T09:11:38.973Z,74.34
2018-05-29T09:12:38.988Z,74.92
2018-05-29T09:13:39.017Z,74.73
2018-05-29T09:14:39.029Z,74.98
2018-05-29T09:15:39.099Z,75.07
2018-05-29T09:16:39.066Z,74.82
2018-05-29T09:17:39.086Z,73.57
2018-05-29T09:18:39.106Z,72.90
2018-05-29T09:19:39.125Z,73.38
2018-05-29T09:20:39.196Z,73.13
2018-05-29T09:21:39.166Z,72.74
2018-05-29T09:22:39.180Z,71.65
2018-05-29T09:23:39.207Z,73.15
2018-05-29T09:24:39.220Z,75.71
2018-05-29T09:25:39.238Z,76.39
2018-05-29T09:26:39.307Z,77.06
2018-05-29T09:27:39.273Z,76.48
2018-05-29T09:28:39.304Z,77.25
2018-05-29T09:29:39.379Z,76.77
2018-05-29T09:30:39.333Z,76.39
2018-05-29T09:31:39.348Z,76.34
2018-05-29T09:32:39.422Z,77.11
2018-05-29T09:33:39.393Z,77.01
2018-05-29T09:34:39.403Z,76.15
2018-05-29T09:35:39.425Z,75.57
2018-05-29T09:36:39.441Z,76.06
2018-05-29T09:37:39.464Z,75.38
2018-05-29T09:38:39.541Z,75.00
2018-05-29T09:39:39.506Z,74.33
2018-05-29T09:40:39.525Z,73.85
2018-05-29T09:41:39.546Z,74.62
2018-05-29T09:42:39.563Z,74.90
2018-05-29T09:43:39.587Z,75.63
2018-05-29T09:44:39.700Z,75.92
2018-05-29T09:45:39.615Z,76.59
2018-05-29T09:46:39.628Z,76.50
2018-05-29T09:47:39.649Z,76.40
2018-05-29T09:48:39.668Z,76.31
2018-05-29T09:49:39.713Z,75.54
2018-05-29T09:50:39.704Z,75.92
2018-05-29T09:51:39.720Z,74.77
2018-05-29T09:52:39.745Z,74.77
2018-05-29T09:53:39.763Z,75.25
2018-05-29T09:54:39.780Z,75.06
2018-05-29T09:55:39.841Z,75.02
2018-05-29T09:56:39.864Z,74.73
2018-05-29T09:57:39.830Z,74.93
2018-05-29T09:58:39.851Z,74.83
2018-05-29T09:59:39.869Z,75.31
2018-05-29T10:00:39.885Z,76.27
2018-05-29T10:01:39.942Z,76.37
2018-05-29T10:02:39.971Z,76.56
2018-05-29T10:03:39.945Z,77.23
2018-05-29T10:04:39.959Z,76.56
2018-05-29T10:05:39.978Z,76.46
2018-05-29T10:06:39.990Z,77.04
2018-05-29T10:07:40.032Z,76.94
2018-05-29T10:08:40.079Z,77.58
2018-05-29T10:09:40.061Z,77.86
2018-05-29T10:10:40.067Z,77.67
2018-05-29T10:11:40.082Z,77.76
2018-05-29T10:12:40.103Z,78.09
2018-05-29T10:13:40.135Z,77.90
2018-05-29T10:14:40.188Z,78.15
2018-05-29T10:15:40.159Z,78.53
2018-05-29T10:16:40.171Z,78.77
2018-05-29T10:17:40.186Z,77.90
2018-05-29T10:18:40.209Z,77.23
2018-05-29T10:19:40.230Z,76.37
2018-05-29T10:20:40.290Z,75.98
2018-05-29T10:21:40.280Z,75.70
2018-05-29T10:22:40.287Z,76.37
2018-05-29T10:23:40.295Z,76.27
2018-05-29T10:24:40.384Z,76.07
2018-05-29T10:25:40.332Z,76.37
2018-05-29T10:26:40.352Z,75.70
2018-05-29T10:27:40.368Z,75.25
2018-05-29T10:28:40.384Z,74.77
2018-05-29T10:29:40.416Z,73.91
2018-05-29T10:30:40.427Z,73.52
2018-05-29T10:31:40.446Z,74.10
2018-05-29T10:32:40.509Z,72.75
2018-05-29T10:33:40.470Z,71.70
2018-05-29T10:34:40.491Z,70.51
2018-05-29T10:35:40.509Z,71.28
2018-05-29T10:36:40.527Z,70.74
2018-05-29T10:37:40.551Z,69.56
2018-05-29T10:38:40.613Z,68.69
2018-05-29T10:39:40.583Z,68.88
2018-05-29T10:40:40.600Z,68.21
2018-05-29T10:41:40.625Z,69.26
2018-05-29T10:42:40.633Z,69.26
2018-05-29T10:43:40.654Z,69.65
2018-05-29T10:44:40.721Z,69.65
2018-05-29T10:45:40.686Z,71.03
2018-05-29T10:46:40.709Z,71.47
2018-05-29T10:47:40.725Z,73.58
2018-05-29T10:48:40.741Z,73.77
2018-05-29T10:49:40.764Z,74.54
2018-05-29T10:50:40.831Z,76.07
2018-05-29T10:51:40.794Z,77.04
2018-05-29T10:52:40.811Z,78.47
2018-05-29T10:53:40.862Z,79.78
2018-05-29T10:54:40.848Z,79.11
2018-05-29T10:55:40.863Z,80.55
2018-05-29T10:56:40.937Z,78.53
2018-05-29T10:57:40.906Z,78.19
2018-05-29T10:58:40.920Z,79.05
2018-05-29T10:59:40.956Z,78.57
2018-05-29T11:00:40.953Z,77.51
2018-05-29T11:01:40.981Z,77.29
2018-05-29T11:02:41.040Z,79.59
2018-05-29T11:03:41.018Z,77.86
2018-05-29T11:04:41.030Z,78.44
2018-05-29T11:06:41.071Z,79.21
2018-05-29T11:07:41.084Z,78.53
2018-05-29T11:08:41.152Z,79.49
2018-05-29T11:09:41.116Z,79.01
2018-05-29T11:10:41.136Z,77.09
2018-05-29T11:11:41.155Z,78.57
2018-05-29T11:12:41.177Z,79.44
2018-05-29T11:13:41.243Z,78.67
2018-05-29T11:14:41.202Z,77.33
2018-05-29T11:15:41.220Z,78.47
2018-05-29T11:16:41.238Z,78.38
2018-05-29T11:17:41.259Z,78.47
2018-05-29T11:18:41.284Z,78.67
2018-05-29T11:19:41.351Z,78.96
2018-05-29T11:20:41.316Z,78.28
2018-05-29T11:21:41.330Z,78.57
2018-05-29T11:22:41.381Z,77.61
2018-05-29T11:23:41.366Z,77.90
2018-05-29T11:24:41.393Z,77.90
2018-05-29T11:25:41.454Z,77.61
2018-05-29T11:26:41.424Z,77.56
2018-05-29T11:27:41.435Z,76.59
2018-05-29T11:28:41.551Z,76.15
2018-05-29T11:29:41.472Z,74.71
2018-05-29T11:30:41.510Z,72.79
2018-05-29T11:31:41.560Z,71.55
2018-05-29T11:32:41.538Z,70.10
2018-05-29T11:33:41.552Z,67.51
2018-05-29T11:34:41.563Z,67.07
2018-05-29T11:35:41.589Z,67.45
2018-05-29T11:36:41.602Z,66.84
2018-05-29T11:37:41.672Z,68.12
2018-05-29T11:38:41.632Z,68.41
2018-05-29T11:39:41.658Z,68.21
2018-05-29T11:40:41.675Z,68.79
2018-05-29T11:41:41.694Z,68.51
2018-05-29T11:42:41.705Z,68.73
2018-05-29T11:43:41.778Z,68.44
2018-05-29T11:44:41.747Z,67.99
2018-05-29T11:45:41.826Z,65.88
2018-05-29T11:46:41.785Z,67.35
2018-05-29T11:47:41.800Z,65.91
2018-05-29T11:48:41.866Z,66.52
2018-05-29T11:49:41.837Z,67.77
2018-05-29T11:50:41.852Z,64.69
2018-05-29T11:51:41.904Z,64.21
2018-05-29T11:52:41.891Z,63.79
2018-05-29T11:53:41.915Z,65.91
2018-05-29T11:54:41.987Z,66.68
2018-05-29T11:55:41.955Z,66.30
2018-05-29T11:56:41.970Z,67.74
2018-05-29T11:57:41.988Z,67.83
2018-05-29T11:58:42.005Z,67.35
2018-05-29T11:59:42.025Z,66.58
2018-05-29T12:00:42.102Z,66.74
2018-05-29T12:01:42.120Z,68.83
2018-05-29T12:02:42.109Z,69.60
2018-05-29T12:03:42.182Z,72.00
2018-05-29T12:04:42.121Z,71.42
2018-05-29T12:05:42.141Z,70.78
2018-05-29T12:06:42.210Z,69.06
2018-05-29T12:07:42.194Z,68.86
2018-05-29T12:08:42.201Z,68.48
2018-05-29T12:09:42.292Z,69.89
2018-05-29T12:10:42.236Z,71.52
2018-05-29T12:11:42.253Z,71.77
2018-05-29T12:12:42.328Z,72.79
2018-05-29T12:13:42.293Z,72.99
2018-05-29T12:14:42.319Z,72.73
2018-05-29T12:15:42.389Z,71.67
2018-05-29T12:16:42.347Z,72.09
2018-05-29T12:17:42.369Z,72.00
2018-05-29T12:18:42.435Z,72.09
2018-05-29T12:19:42.406Z,71.81
2018-05-29T12:21:42.523Z,74.02
2018-05-29T12:22:42.462Z,73.69
2018-05-29T12:23:42.481Z,74.94
2018-05-29T12:24:42.544Z,74.94
2018-05-29T12:25:42.519Z,75.52
2018-05-29T12:26:42.535Z,76.25
2018-05-29T12:27:42.555Z,77.31
2018-05-29T12:28:42.573Z,77.59
2018-05-29T12:29:42.593Z,77.40
2018-05-29T12:30:42.654Z,77.56
2018-05-29T12:31:42.628Z,77.40
2018-05-29T12:32:42.668Z,77.59
2018-05-29T12:33:42.711Z,77.69
2018-05-29T12:34:42.687Z,77.40
2018-05-29T12:35:42.704Z,78.08
2018-05-29T12:36:42.774Z,77.01
2018-05-29T12:37:42.738Z,77.59
2018-05-29T12:38:42.815Z,77.78
2018-05-29T12:39:42.771Z,77.88
2018-05-29T12:40:42.794Z,78.65
2018-05-29T12:41:42.809Z,77.50
2018-05-29T12:42:42.877Z,77.78
2018-05-29T12:43:42.851Z,78.17
2018-05-29T12:44:42.863Z,77.63
2018-05-29T12:45:42.879Z,77.50
2018-05-29T12:46:42.904Z,76.96
2018-05-29T12:47:42.916Z,77.21
2018-05-29T12:48:42.984Z,77.40
2018-05-29T12:49:42.953Z,77.21
2018-05-29T12:50:42.969Z,77.83
2018-05-29T12:51:42.988Z,77.69
2018-05-29T12:52:43.011Z,77.83
2018-05-29T12:53:43.035Z,77.78
2018-05-29T12:54:43.098Z,77.50
2018-05-29T12:55:43.063Z,76.82
2018-05-29T12:56:43.100Z,76.73